sensor_id;sensor_type;location;lat;lon;timestamp;P1;durP1;ratioP1;P2;durP2;ratioP2
11123;SDS011;5616;42.692;23.312;2023-06-14T00:00:47;6.10;;;5.60;;
11123;SDS011;5616;42.692;23.312;2023-06-14T00:03:14;9.57;;;5.53;;
11123;SDS011;5616;42.692;23.312;2023-06-14T00:05:42;6.07;;;5.47;;
11123;SDS011;5616;42.692;23.312;2023-06-14T00:08:11;6.23;;;5.20;;
11123;SDS011;5616;42.692;23.312;2023-06-14T00:10:38;5.50;;;5.00;;
11123;SDS011;5616;42.692;23.312;2023-06-14T00:13:06;6.93;;;5.30;;
11123;SDS011;5616;42.692;23.312;2023-06-14T00:15:33;7.57;;;4.87;;
11123;SDS011;5616;42.692;23.312;2023-06-14T00:18:02;4.67;;;4.27;;
11123;SDS011;5616;42.692;23.312;2023-06-14T00:20:31;5.97;;;4.80;;
11123;SDS011;5616;42.692;23.312;2023-06-14T00:22:59;6.27;;;5.43;;
11123;SDS011;5616;42.692;23.312;2023-06-14T00:25:26;6.63;;;5.03;;
11123;SDS011;5616;42.692;23.312;2023-06-14T00:27:53;5.60;;;4.93;;
11123;SDS011;5616;42.692;23.312;2023-06-14T00:30:21;7.83;;;4.80;;
11123;SDS011;5616;42.692;23.312;2023-06-14T00:32:48;4.83;;;4.43;;
11123;SDS011;5616;42.692;23.312;2023-06-14T00:35:18;6.93;;;5.27;;
11123;SDS011;5616;42.692;23.312;2023-06-14T00:37:45;8.03;;;4.93;;
11123;SDS011;5616;42.692;23.312;2023-06-14T00:40:11;5.20;;;4.70;;
11123;SDS011;5616;42.692;23.312;2023-06-14T00:42:38;5.90;;;5.20;;
11123;SDS011;5616;42.692;23.312;2023-06-14T00:45:05;5.43;;;4.93;;
11123;SDS011;5616;42.692;23.312;2023-06-14T00:47:33;6.07;;;4.80;;
11123;SDS011;5616;42.692;23.312;2023-06-14T00:50:00;6.10;;;4.90;;
11123;SDS011;5616;42.692;23.312;2023-06-14T00:52:29;5.40;;;4.90;;
11123;SDS011;5616;42.692;23.312;2023-06-14T00:54:57;7.27;;;4.70;;
11123;SDS011;5616;42.692;23.312;2023-06-14T00:57:24;5.47;;;4.97;;
11123;SDS011;5616;42.692;23.312;2023-06-14T00:59:51;4.73;;;4.33;;
11123;SDS011;5616;42.692;23.312;2023-06-14T01:02:19;6.53;;;4.83;;
11123;SDS011;5616;42.692;23.312;2023-06-14T01:04:46;8.80;;;4.93;;
11123;SDS011;5616;42.692;23.312;2023-06-14T01:07:17;4.83;;;4.30;;
11123;SDS011;5616;42.692;23.312;2023-06-14T01:09:58;5.47;;;4.83;;
11123;SDS011;5616;42.692;23.312;2023-06-14T01:12:37;5.17;;;4.53;;
11123;SDS011;5616;42.692;23.312;2023-06-14T01:15:11;5.87;;;5.37;;
11123;SDS011;5616;42.692;23.312;2023-06-14T01:17:39;5.73;;;5.10;;
11123;SDS011;5616;42.692;23.312;2023-06-14T01:20:10;8.33;;;4.90;;
11123;SDS011;5616;42.692;23.312;2023-06-14T01:22:47;5.97;;;5.03;;
11123;SDS011;5616;42.692;23.312;2023-06-14T01:25:18;5.03;;;4.63;;
11123;SDS011;5616;42.692;23.312;2023-06-14T01:27:48;6.33;;;5.37;;
11123;SDS011;5616;42.692;23.312;2023-06-14T01:30:17;5.93;;;5.43;;
11123;SDS011;5616;42.692;23.312;2023-06-14T01:32:45;6.37;;;4.93;;
11123;SDS011;5616;42.692;23.312;2023-06-14T01:35:13;8.20;;;5.33;;
11123;SDS011;5616;42.692;23.312;2023-06-14T01:37:40;6.63;;;5.10;;
11123;SDS011;5616;42.692;23.312;2023-06-14T01:40:11;5.87;;;4.97;;
11123;SDS011;5616;42.692;23.312;2023-06-14T01:42:39;8.73;;;5.13;;
11123;SDS011;5616;42.692;23.312;2023-06-14T01:45:09;5.20;;;4.70;;
11123;SDS011;5616;42.692;23.312;2023-06-14T01:47:36;5.87;;;4.67;;
11123;SDS011;5616;42.692;23.312;2023-06-14T01:50:04;6.43;;;5.43;;
11123;SDS011;5616;42.692;23.312;2023-06-14T01:52:31;5.90;;;5.40;;
11123;SDS011;5616;42.692;23.312;2023-06-14T01:54:58;5.93;;;5.43;;
11123;SDS011;5616;42.692;23.312;2023-06-14T01:57:28;5.47;;;4.97;;
11123;SDS011;5616;42.692;23.312;2023-06-14T01:59:55;6.50;;;5.60;;
11123;SDS011;5616;42.692;23.312;2023-06-14T02:02:24;5.53;;;4.83;;
11123;SDS011;5616;42.692;23.312;2023-06-14T02:04:52;6.90;;;5.37;;
11123;SDS011;5616;42.692;23.312;2023-06-14T02:07:22;7.37;;;5.63;;
11123;SDS011;5616;42.692;23.312;2023-06-14T02:09:50;7.77;;;5.67;;
11123;SDS011;5616;42.692;23.312;2023-06-14T02:12:17;7.27;;;5.87;;
11123;SDS011;5616;42.692;23.312;2023-06-14T02:14:45;7.00;;;5.63;;
11123;SDS011;5616;42.692;23.312;2023-06-14T02:17:13;8.00;;;6.57;;
11123;SDS011;5616;42.692;23.312;2023-06-14T02:19:41;5.97;;;5.37;;
11123;SDS011;5616;42.692;23.312;2023-06-14T02:22:08;6.70;;;5.57;;
11123;SDS011;5616;42.692;23.312;2023-06-14T02:24:35;8.40;;;5.67;;
11123;SDS011;5616;42.692;23.312;2023-06-14T02:27:06;7.37;;;5.40;;
11123;SDS011;5616;42.692;23.312;2023-06-14T02:29:35;7.30;;;4.90;;
11123;SDS011;5616;42.692;23.312;2023-06-14T02:32:04;5.87;;;5.17;;
11123;SDS011;5616;42.692;23.312;2023-06-14T02:34:32;6.43;;;5.83;;
11123;SDS011;5616;42.692;23.312;2023-06-14T02:36:59;6.17;;;5.53;;
11123;SDS011;5616;42.692;23.312;2023-06-14T02:39:28;5.90;;;5.20;;
11123;SDS011;5616;42.692;23.312;2023-06-14T02:41:54;6.80;;;5.00;;
11123;SDS011;5616;42.692;23.312;2023-06-14T02:44:24;5.50;;;5.00;;
11123;SDS011;5616;42.692;23.312;2023-06-14T02:46:52;6.93;;;5.37;;
11123;SDS011;5616;42.692;23.312;2023-06-14T02:49:21;15.57;;;6.03;;
11123;SDS011;5616;42.692;23.312;2023-06-14T02:51:48;5.70;;;5.07;;
11123;SDS011;5616;42.692;23.312;2023-06-14T02:54:15;6.10;;;5.60;;
11123;SDS011;5616;42.692;23.312;2023-06-14T02:56:42;8.97;;;5.90;;
11123;SDS011;5616;42.692;23.312;2023-06-14T02:59:09;8.77;;;5.47;;
11123;SDS011;5616;42.692;23.312;2023-06-14T03:01:37;6.20;;;5.17;;
11123;SDS011;5616;42.692;23.312;2023-06-14T03:04:07;6.57;;;5.27;;
11123;SDS011;5616;42.692;23.312;2023-06-14T03:06:38;5.77;;;5.27;;
11123;SDS011;5616;42.692;23.312;2023-06-14T03:09:06;9.63;;;5.43;;
11123;SDS011;5616;42.692;23.312;2023-06-14T03:11:36;6.10;;;5.50;;
11123;SDS011;5616;42.692;23.312;2023-06-14T03:14:04;9.17;;;5.40;;
11123;SDS011;5616;42.692;23.312;2023-06-14T03:16:34;6.63;;;5.50;;
11123;SDS011;5616;42.692;23.312;2023-06-14T03:19:02;6.20;;;5.70;;
11123;SDS011;5616;42.692;23.312;2023-06-14T03:21:31;6.40;;;5.83;;
11123;SDS011;5616;42.692;23.312;2023-06-14T03:24:03;6.43;;;5.83;;
11123;SDS011;5616;42.692;23.312;2023-06-14T03:26:32;6.90;;;6.00;;
11123;SDS011;5616;42.692;23.312;2023-06-14T03:28:59;6.40;;;5.50;;
11123;SDS011;5616;42.692;23.312;2023-06-14T03:31:26;6.43;;;5.83;;
11123;SDS011;5616;42.692;23.312;2023-06-14T03:33:59;6.50;;;5.90;;
11123;SDS011;5616;42.692;23.312;2023-06-14T03:36:26;8.33;;;5.97;;
11123;SDS011;5616;42.692;23.312;2023-06-14T03:38:54;9.13;;;5.83;;
11123;SDS011;5616;42.692;23.312;2023-06-14T03:41:22;6.20;;;5.60;;
11123;SDS011;5616;42.692;23.312;2023-06-14T03:43:51;9.00;;;6.00;;
11123;SDS011;5616;42.692;23.312;2023-06-14T03:46:18;6.77;;;5.53;;
11123;SDS011;5616;42.692;23.312;2023-06-14T03:48:45;7.23;;;6.27;;
11123;SDS011;5616;42.692;23.312;2023-06-14T03:51:12;7.33;;;6.23;;
11123;SDS011;5616;42.692;23.312;2023-06-14T03:53:39;10.33;;;6.80;;
11123;SDS011;5616;42.692;23.312;2023-06-14T03:56:06;7.40;;;6.60;;
11123;SDS011;5616;42.692;23.312;2023-06-14T03:58:41;6.87;;;6.10;;
11123;SDS011;5616;42.692;23.312;2023-06-14T04:01:08;8.33;;;6.40;;
11123;SDS011;5616;42.692;23.312;2023-06-14T04:03:34;6.93;;;6.13;;
11123;SDS011;5616;42.692;23.312;2023-06-14T04:06:03;7.80;;;6.27;;
11123;SDS011;5616;42.692;23.312;2023-06-14T04:08:31;6.87;;;6.23;;
11123;SDS011;5616;42.692;23.312;2023-06-14T04:10:58;7.50;;;5.87;;
11123;SDS011;5616;42.692;23.312;2023-06-14T04:13:24;8.10;;;6.27;;
11123;SDS011;5616;42.692;23.312;2023-06-14T04:15:53;7.57;;;6.13;;
11123;SDS011;5616;42.692;23.312;2023-06-14T04:18:26;7.47;;;6.70;;
11123;SDS011;5616;42.692;23.312;2023-06-14T04:20:54;9.07;;;6.00;;
11123;SDS011;5616;42.692;23.312;2023-06-14T04:23:22;8.57;;;5.57;;
11123;SDS011;5616;42.692;23.312;2023-06-14T04:25:49;6.27;;;5.40;;
11123;SDS011;5616;42.692;23.312;2023-06-14T04:28:16;6.57;;;5.83;;
11123;SDS011;5616;42.692;23.312;2023-06-14T04:30:44;7.93;;;6.50;;
11123;SDS011;5616;42.692;23.312;2023-06-14T04:33:14;7.87;;;6.47;;
11123;SDS011;5616;42.692;23.312;2023-06-14T04:35:42;7.50;;;6.53;;
11123;SDS011;5616;42.692;23.312;2023-06-14T04:38:13;6.60;;;6.00;;
11123;SDS011;5616;42.692;23.312;2023-06-14T04:40:41;10.00;;;5.97;;
11123;SDS011;5616;42.692;23.312;2023-06-14T04:43:11;6.90;;;6.27;;
11123;SDS011;5616;42.692;23.312;2023-06-14T04:45:40;8.53;;;6.00;;
11123;SDS011;5616;42.692;23.312;2023-06-14T04:48:10;7.40;;;6.67;;
11123;SDS011;5616;42.692;23.312;2023-06-14T04:50:38;7.30;;;6.20;;
11123;SDS011;5616;42.692;23.312;2023-06-14T04:53:06;9.27;;;6.40;;
11123;SDS011;5616;42.692;23.312;2023-06-14T04:55:34;7.50;;;6.70;;
11123;SDS011;5616;42.692;23.312;2023-06-14T04:58:03;6.97;;;6.37;;
11123;SDS011;5616;42.692;23.312;2023-06-14T05:00:30;6.60;;;6.00;;
11123;SDS011;5616;42.692;23.312;2023-06-14T05:02:57;6.80;;;6.20;;
11123;SDS011;5616;42.692;23.312;2023-06-14T05:05:26;7.77;;;6.17;;
11123;SDS011;5616;42.692;23.312;2023-06-14T05:07:54;7.33;;;6.50;;
11123;SDS011;5616;42.692;23.312;2023-06-14T05:10:21;6.87;;;6.27;;
11123;SDS011;5616;42.692;23.312;2023-06-14T05:12:48;8.20;;;6.70;;
11123;SDS011;5616;42.692;23.312;2023-06-14T05:15:17;10.40;;;7.43;;
11123;SDS011;5616;42.692;23.312;2023-06-14T05:17:45;10.53;;;7.77;;
11123;SDS011;5616;42.692;23.312;2023-06-14T05:20:18;14.77;;;10.40;;
11123;SDS011;5616;42.692;23.312;2023-06-14T05:22:45;9.00;;;7.73;;
11123;SDS011;5616;42.692;23.312;2023-06-14T05:25:14;8.90;;;7.87;;
11123;SDS011;5616;42.692;23.312;2023-06-14T05:27:41;9.03;;;8.23;;
11123;SDS011;5616;42.692;23.312;2023-06-14T05:30:08;8.63;;;7.83;;
11123;SDS011;5616;42.692;23.312;2023-06-14T05:32:36;9.03;;;8.03;;
11123;SDS011;5616;42.692;23.312;2023-06-14T05:35:03;46.33;;;26.17;;
11123;SDS011;5616;42.692;23.312;2023-06-14T05:37:31;14.30;;;9.87;;
11123;SDS011;5616;42.692;23.312;2023-06-14T05:39:58;8.70;;;7.33;;
11123;SDS011;5616;42.692;23.312;2023-06-14T05:42:26;8.73;;;7.73;;
11123;SDS011;5616;42.692;23.312;2023-06-14T05:44:53;10.70;;;8.13;;
11123;SDS011;5616;42.692;23.312;2023-06-14T05:47:20;10.20;;;8.03;;
11123;SDS011;5616;42.692;23.312;2023-06-14T05:49:47;9.27;;;7.43;;
11123;SDS011;5616;42.692;23.312;2023-06-14T05:52:14;9.23;;;7.93;;
11123;SDS011;5616;42.692;23.312;2023-06-14T05:54:41;13.90;;;8.33;;
11123;SDS011;5616;42.692;23.312;2023-06-14T05:57:08;10.67;;;9.30;;
11123;SDS011;5616;42.692;23.312;2023-06-14T05:59:37;12.87;;;8.80;;
11123;SDS011;5616;42.692;23.312;2023-06-14T06:02:04;14.40;;;10.10;;
11123;SDS011;5616;42.692;23.312;2023-06-14T06:04:31;10.20;;;9.20;;
11123;SDS011;5616;42.692;23.312;2023-06-14T06:06:58;16.77;;;9.43;;
11123;SDS011;5616;42.692;23.312;2023-06-14T06:09:25;12.73;;;8.80;;
11123;SDS011;5616;42.692;23.312;2023-06-14T06:11:51;11.57;;;9.40;;
11123;SDS011;5616;42.692;23.312;2023-06-14T06:14:18;11.40;;;9.07;;
11123;SDS011;5616;42.692;23.312;2023-06-14T06:16:47;11.47;;;9.13;;
11123;SDS011;5616;42.692;23.312;2023-06-14T06:19:13;14.90;;;9.43;;
11123;SDS011;5616;42.692;23.312;2023-06-14T06:21:41;10.43;;;9.33;;
11123;SDS011;5616;42.692;23.312;2023-06-14T06:24:07;10.77;;;9.10;;
11123;SDS011;5616;42.692;23.312;2023-06-14T06:26:34;16.30;;;10.40;;
11123;SDS011;5616;42.692;23.312;2023-06-14T06:29:01;12.40;;;10.43;;
11123;SDS011;5616;42.692;23.312;2023-06-14T06:31:28;16.17;;;11.20;;
11123;SDS011;5616;42.692;23.312;2023-06-14T06:33:56;12.33;;;11.03;;
11123;SDS011;5616;42.692;23.312;2023-06-14T06:36:23;13.57;;;11.10;;
11123;SDS011;5616;42.692;23.312;2023-06-14T06:38:50;11.47;;;10.17;;
11123;SDS011;5616;42.692;23.312;2023-06-14T06:41:18;13.70;;;10.43;;
11123;SDS011;5616;42.692;23.312;2023-06-14T06:43:45;10.80;;;9.20;;
11123;SDS011;5616;42.692;23.312;2023-06-14T06:46:15;13.47;;;9.80;;
11123;SDS011;5616;42.692;23.312;2023-06-14T06:48:43;12.00;;;10.23;;
11123;SDS011;5616;42.692;23.312;2023-06-14T06:51:11;11.47;;;10.17;;
11123;SDS011;5616;42.692;23.312;2023-06-14T06:53:41;12.00;;;10.53;;
11123;SDS011;5616;42.692;23.312;2023-06-14T06:56:09;12.47;;;11.20;;
11123;SDS011;5616;42.692;23.312;2023-06-14T06:58:36;15.03;;;11.07;;
11123;SDS011;5616;42.692;23.312;2023-06-14T07:01:03;13.00;;;11.70;;
11123;SDS011;5616;42.692;23.312;2023-06-14T07:03:30;16.13;;;14.00;;
11123;SDS011;5616;42.692;23.312;2023-06-14T07:05:56;18.35;;;13.32;;
11123;SDS011;5616;42.692;23.312;2023-06-14T07:08:25;14.60;;;13.07;;
11123;SDS011;5616;42.692;23.312;2023-06-14T07:10:52;13.90;;;11.48;;
11123;SDS011;5616;42.692;23.312;2023-06-14T07:13:19;13.95;;;11.30;;
11123;SDS011;5616;42.692;23.312;2023-06-14T07:15:46;16.17;;;11.75;;
11123;SDS011;5616;42.692;23.312;2023-06-14T07:18:13;15.75;;;12.10;;
11123;SDS011;5616;42.692;23.312;2023-06-14T07:20:40;16.15;;;11.32;;
11123;SDS011;5616;42.692;23.312;2023-06-14T07:23:08;13.85;;;11.80;;
11123;SDS011;5616;42.692;23.312;2023-06-14T07:25:36;12.48;;;11.30;;
11123;SDS011;5616;42.692;23.312;2023-06-14T07:28:03;13.13;;;11.07;;
11123;SDS011;5616;42.692;23.312;2023-06-14T07:30:30;15.93;;;12.32;;
11123;SDS011;5616;42.692;23.312;2023-06-14T07:32:57;11.90;;;10.38;;
11123;SDS011;5616;42.692;23.312;2023-06-14T07:35:24;10.80;;;9.80;;
11123;SDS011;5616;42.692;23.312;2023-06-14T07:37:51;11.82;;;10.07;;
11123;SDS011;5616;42.692;23.312;2023-06-14T07:40:18;10.15;;;9.10;;
11123;SDS011;5616;42.692;23.312;2023-06-14T07:42:46;12.23;;;9.23;;
11123;SDS011;5616;42.692;23.312;2023-06-14T07:45:15;11.23;;;9.50;;
11123;SDS011;5616;42.692;23.312;2023-06-14T07:47:41;13.57;;;10.68;;
11123;SDS011;5616;42.692;23.312;2023-06-14T07:50:09;21.48;;;15.07;;
11123;SDS011;5616;42.692;23.312;2023-06-14T07:52:37;13.85;;;11.88;;
11123;SDS011;5616;42.692;23.312;2023-06-14T07:55:04;17.70;;;13.05;;
11123;SDS011;5616;42.692;23.312;2023-06-14T07:57:32;16.38;;;12.77;;
11123;SDS011;5616;42.692;23.312;2023-06-14T08:00:00;12.85;;;11.43;;
11123;SDS011;5616;42.692;23.312;2023-06-14T08:02:37;12.80;;;11.50;;
11123;SDS011;5616;42.692;23.312;2023-06-14T08:05:04;14.02;;;11.68;;
11123;SDS011;5616;42.692;23.312;2023-06-14T08:07:31;12.30;;;10.88;;
11123;SDS011;5616;42.692;23.312;2023-06-14T08:09:58;11.52;;;10.32;;
11123;SDS011;5616;42.692;23.312;2023-06-14T08:12:26;12.23;;;10.93;;
11123;SDS011;5616;42.692;23.312;2023-06-14T08:14:52;14.43;;;12.45;;
11123;SDS011;5616;42.692;23.312;2023-06-14T08:17:21;11.15;;;10.15;;
11123;SDS011;5616;42.692;23.312;2023-06-14T08:19:47;11.75;;;9.93;;
11123;SDS011;5616;42.692;23.312;2023-06-14T08:22:14;11.88;;;9.10;;
11123;SDS011;5616;42.692;23.312;2023-06-14T08:24:43;11.95;;;9.98;;
11123;SDS011;5616;42.692;23.312;2023-06-14T08:27:10;12.20;;;10.43;;
11123;SDS011;5616;42.692;23.312;2023-06-14T08:29:38;10.77;;;9.68;;
11123;SDS011;5616;42.692;23.312;2023-06-14T08:32:06;11.18;;;9.95;;
11123;SDS011;5616;42.692;23.312;2023-06-14T08:34:34;10.93;;;9.82;;
11123;SDS011;5616;42.692;23.312;2023-06-14T08:37:01;10.98;;;9.98;;
11123;SDS011;5616;42.692;23.312;2023-06-14T08:39:28;10.15;;;8.43;;
11123;SDS011;5616;42.692;23.312;2023-06-14T08:41:55;11.23;;;10.07;;
11123;SDS011;5616;42.692;23.312;2023-06-14T08:44:23;11.73;;;9.90;;
11123;SDS011;5616;42.692;23.312;2023-06-14T08:46:50;9.75;;;8.30;;
11123;SDS011;5616;42.692;23.312;2023-06-14T08:49:18;11.85;;;8.38;;
11123;SDS011;5616;42.692;23.312;2023-06-14T08:51:48;11.27;;;8.00;;
11123;SDS011;5616;42.692;23.312;2023-06-14T08:54:22;12.85;;;9.25;;
11123;SDS011;5616;42.692;23.312;2023-06-14T08:56:53;9.63;;;8.70;;
11123;SDS011;5616;42.692;23.312;2023-06-14T08:59:23;10.00;;;8.98;;
11123;SDS011;5616;42.692;23.312;2023-06-14T09:01:51;9.70;;;8.60;;
11123;SDS011;5616;42.692;23.312;2023-06-14T09:04:19;10.45;;;9.30;;
11123;SDS011;5616;42.692;23.312;2023-06-14T09:06:46;9.30;;;8.43;;
11123;SDS011;5616;42.692;23.312;2023-06-14T09:09:18;8.93;;;8.02;;
11123;SDS011;5616;42.692;23.312;2023-06-14T09:11:46;9.50;;;7.75;;
11123;SDS011;5616;42.692;23.312;2023-06-14T09:14:13;8.32;;;6.97;;
11123;SDS011;5616;42.692;23.312;2023-06-14T09:16:40;9.60;;;8.40;;
11123;SDS011;5616;42.692;23.312;2023-06-14T09:19:06;9.68;;;8.77;;
11123;SDS011;5616;42.692;23.312;2023-06-14T09:21:34;11.27;;;10.07;;
11123;SDS011;5616;42.692;23.312;2023-06-14T09:24:04;15.02;;;10.50;;
11123;SDS011;5616;42.692;23.312;2023-06-14T09:26:31;11.88;;;9.50;;
11123;SDS011;5616;42.692;23.312;2023-06-14T09:28:58;10.88;;;8.32;;
11123;SDS011;5616;42.692;23.312;2023-06-14T09:31:25;9.32;;;8.32;;
11123;SDS011;5616;42.692;23.312;2023-06-14T09:33:56;10.23;;;9.02;;
11123;SDS011;5616;42.692;23.312;2023-06-14T09:36:24;9.38;;;8.48;;
11123;SDS011;5616;42.692;23.312;2023-06-14T09:38:52;10.00;;;9.10;;
11123;SDS011;5616;42.692;23.312;2023-06-14T09:41:21;10.18;;;8.95;;
11123;SDS011;5616;42.692;23.312;2023-06-14T09:43:57;12.13;;;9.05;;
11123;SDS011;5616;42.692;23.312;2023-06-14T09:46:26;14.80;;;10.23;;
11123;SDS011;5616;42.692;23.312;2023-06-14T09:48:53;13.18;;;10.20;;
11123;SDS011;5616;42.692;23.312;2023-06-14T09:51:20;17.88;;;10.70;;
11123;SDS011;5616;42.692;23.312;2023-06-14T09:53:49;17.75;;;12.65;;
11123;SDS011;5616;42.692;23.312;2023-06-14T09:56:18;10.85;;;9.68;;
11123;SDS011;5616;42.692;23.312;2023-06-14T09:58:54;10.43;;;9.40;;
11123;SDS011;5616;42.692;23.312;2023-06-14T10:01:23;9.80;;;8.25;;
11123;SDS011;5616;42.692;23.312;2023-06-14T10:03:53;10.50;;;9.48;;
11123;SDS011;5616;42.692;23.312;2023-06-14T10:06:25;11.38;;;9.40;;
11123;SDS011;5616;42.692;23.312;2023-06-14T10:08:56;13.63;;;10.00;;
11123;SDS011;5616;42.692;23.312;2023-06-14T10:11:26;14.10;;;9.85;;
11123;SDS011;5616;42.692;23.312;2023-06-14T10:13:54;11.48;;;10.48;;
11123;SDS011;5616;42.692;23.312;2023-06-14T10:16:23;12.50;;;10.20;;
11123;SDS011;5616;42.692;23.312;2023-06-14T10:18:59;12.55;;;10.57;;
11123;SDS011;5616;42.692;23.312;2023-06-14T10:21:32;10.68;;;9.55;;
11123;SDS011;5616;42.692;23.312;2023-06-14T10:24:05;11.27;;;8.50;;
11123;SDS011;5616;42.692;23.312;2023-06-14T10:26:40;9.70;;;8.80;;
11123;SDS011;5616;42.692;23.312;2023-06-14T10:29:17;13.68;;;9.00;;
11123;SDS011;5616;42.692;23.312;2023-06-14T10:31:44;11.85;;;9.95;;
11123;SDS011;5616;42.692;23.312;2023-06-14T10:34:12;8.75;;;7.93;;
11123;SDS011;5616;42.692;23.312;2023-06-14T10:36:50;10.05;;;8.45;;
11123;SDS011;5616;42.692;23.312;2023-06-14T10:39:27;10.48;;;9.45;;
11123;SDS011;5616;42.692;23.312;2023-06-14T10:41:57;10.30;;;9.30;;
11123;SDS011;5616;42.692;23.312;2023-06-14T10:44:38;8.82;;;7.97;;
11123;SDS011;5616;42.692;23.312;2023-06-14T10:47:09;10.68;;;8.82;;
11123;SDS011;5616;42.692;23.312;2023-06-14T10:49:49;9.95;;;8.95;;
11123;SDS011;5616;42.692;23.312;2023-06-14T10:52:21;11.00;;;10.00;;
11123;SDS011;5616;42.692;23.312;2023-06-14T10:54:56;9.88;;;8.98;;
11123;SDS011;5616;42.692;23.312;2023-06-14T10:57:27;10.77;;;9.25;;
11123;SDS011;5616;42.692;23.312;2023-06-14T10:59:55;11.13;;;9.52;;
11123;SDS011;5616;42.692;23.312;2023-06-14T11:05:35;10.68;;;9.57;;
11123;SDS011;5616;42.692;23.312;2023-06-14T11:08:27;12.25;;;10.18;;
11123;SDS011;5616;42.692;23.312;2023-06-14T11:11:15;10.23;;;8.68;;
11123;SDS011;5616;42.692;23.312;2023-06-14T11:13:44;11.30;;;9.10;;
11123;SDS011;5616;42.692;23.312;2023-06-14T11:16:12;9.38;;;8.30;;
11123;SDS011;5616;42.692;23.312;2023-06-14T11:18:39;10.88;;;9.45;;
11123;SDS011;5616;42.692;23.312;2023-06-14T11:21:07;9.45;;;8.60;;
11123;SDS011;5616;42.692;23.312;2023-06-14T11:23:35;14.18;;;11.38;;
11123;SDS011;5616;42.692;23.312;2023-06-14T11:26:01;15.57;;;9.70;;
11123;SDS011;5616;42.692;23.312;2023-06-14T11:28:36;9.48;;;8.48;;
11123;SDS011;5616;42.692;23.312;2023-06-14T11:31:05;8.65;;;7.82;;
11123;SDS011;5616;42.692;23.312;2023-06-14T11:33:33;10.18;;;9.18;;
11123;SDS011;5616;42.692;23.312;2023-06-14T11:36:01;8.45;;;7.65;;
11123;SDS011;5616;42.692;23.312;2023-06-14T11:38:29;10.05;;;8.73;;
11123;SDS011;5616;42.692;23.312;2023-06-14T11:40:58;12.00;;;8.48;;
11123;SDS011;5616;42.692;23.312;2023-06-14T11:43:26;35.33;;;22.45;;
11123;SDS011;5616;42.692;23.312;2023-06-14T11:45:54;16.63;;;11.00;;
11123;SDS011;5616;42.692;23.312;2023-06-14T11:48:22;8.63;;;7.47;;
11123;SDS011;5616;42.692;23.312;2023-06-14T11:50:49;12.18;;;8.88;;
11123;SDS011;5616;42.692;23.312;2023-06-14T11:53:17;7.75;;;6.97;;
11123;SDS011;5616;42.692;23.312;2023-06-14T11:55:44;10.75;;;8.43;;
11123;SDS011;5616;42.692;23.312;2023-06-14T11:58:12;8.60;;;6.60;;
11123;SDS011;5616;42.692;23.312;2023-06-14T12:00:40;8.25;;;7.00;;
11123;SDS011;5616;42.692;23.312;2023-06-14T12:03:07;8.35;;;7.50;;
11123;SDS011;5616;42.692;23.312;2023-06-14T12:05:35;7.93;;;7.07;;
11123;SDS011;5616;42.692;23.312;2023-06-14T12:08:03;8.57;;;6.80;;
11123;SDS011;5616;42.692;23.312;2023-06-14T12:10:39;9.45;;;8.45;;
11123;SDS011;5616;42.692;23.312;2023-06-14T12:13:08;17.38;;;12.52;;
11123;SDS011;5616;42.692;23.312;2023-06-14T12:15:35;8.90;;;8.00;;
11123;SDS011;5616;42.692;23.312;2023-06-14T12:18:04;16.80;;;10.82;;
11123;SDS011;5616;42.692;23.312;2023-06-14T12:20:33;10.88;;;8.32;;
11123;SDS011;5616;42.692;23.312;2023-06-14T12:23:03;8.80;;;7.35;;
11123;SDS011;5616;42.692;23.312;2023-06-14T12:25:31;7.93;;;6.65;;
11123;SDS011;5616;42.692;23.312;2023-06-14T12:27:59;8.15;;;7.38;;
11123;SDS011;5616;42.692;23.312;2023-06-14T12:30:33;7.47;;;6.68;;
11123;SDS011;5616;42.692;23.312;2023-06-14T12:33:01;6.68;;;6.03;;
11123;SDS011;5616;42.692;23.312;2023-06-14T12:35:28;11.25;;;9.20;;
11123;SDS011;5616;42.692;23.312;2023-06-14T12:37:55;7.05;;;6.35;;
11123;SDS011;5616;42.692;23.312;2023-06-14T12:40:23;9.02;;;6.90;;
11123;SDS011;5616;42.692;23.312;2023-06-14T12:42:50;10.05;;;7.70;;
11123;SDS011;5616;42.692;23.312;2023-06-14T12:45:17;8.70;;;7.80;;
11123;SDS011;5616;42.692;23.312;2023-06-14T12:47:44;10.00;;;7.50;;
11123;SDS011;5616;42.692;23.312;2023-06-14T12:50:10;11.32;;;7.25;;
11123;SDS011;5616;42.692;23.312;2023-06-14T12:52:37;7.00;;;6.30;;
11123;SDS011;5616;42.692;23.312;2023-06-14T12:55:04;7.90;;;6.30;;
11123;SDS011;5616;42.692;23.312;2023-06-14T12:57:33;6.10;;;5.55;;
11123;SDS011;5616;42.692;23.312;2023-06-14T13:00:02;6.28;;;4.75;;
11123;SDS011;5616;42.692;23.312;2023-06-14T13:02:29;6.43;;;5.55;;
11123;SDS011;5616;42.692;23.312;2023-06-14T13:04:56;7.30;;;6.60;;
11123;SDS011;5616;42.692;23.312;2023-06-14T13:07:24;6.47;;;5.88;;
11123;SDS011;5616;42.692;23.312;2023-06-14T13:09:50;5.70;;;5.00;;
11123;SDS011;5616;42.692;23.312;2023-06-14T13:12:17;7.55;;;5.78;;
11123;SDS011;5616;42.692;23.312;2023-06-14T13:14:46;5.85;;;4.80;;
11123;SDS011;5616;42.692;23.312;2023-06-14T13:17:13;8.43;;;5.07;;
11123;SDS011;5616;42.692;23.312;2023-06-14T13:19:40;6.65;;;5.10;;
11123;SDS011;5616;42.692;23.312;2023-06-14T13:22:07;6.13;;;5.07;;
11123;SDS011;5616;42.692;23.312;2023-06-14T13:24:34;6.32;;;5.65;;
11123;SDS011;5616;42.692;23.312;2023-06-14T13:27:01;6.40;;;5.80;;
11123;SDS011;5616;42.692;23.312;2023-06-14T13:29:28;8.10;;;5.68;;
11123;SDS011;5616;42.692;23.312;2023-06-14T13:31:57;8.93;;;5.63;;
11123;SDS011;5616;42.692;23.312;2023-06-14T13:34:24;5.55;;;4.95;;
11123;SDS011;5616;42.692;23.312;2023-06-14T13:36:51;5.90;;;5.30;;
11123;SDS011;5616;42.692;23.312;2023-06-14T13:39:18;5.75;;;5.13;;
11123;SDS011;5616;42.692;23.312;2023-06-14T13:41:45;5.43;;;4.93;;
11123;SDS011;5616;42.692;23.312;2023-06-14T13:44:12;8.98;;;5.63;;
11123;SDS011;5616;42.692;23.312;2023-06-14T13:46:41;6.18;;;5.57;;
11123;SDS011;5616;42.692;23.312;2023-06-14T13:49:10;6.65;;;6.05;;
11123;SDS011;5616;42.692;23.312;2023-06-14T13:51:37;6.40;;;5.80;;
11123;SDS011;5616;42.692;23.312;2023-06-14T13:54:04;6.93;;;5.90;;
11123;SDS011;5616;42.692;23.312;2023-06-14T13:56:31;6.63;;;5.93;;
11123;SDS011;5616;42.692;23.312;2023-06-14T13:58:58;8.03;;;6.63;;
11123;SDS011;5616;42.692;23.312;2023-06-14T14:01:25;7.73;;;6.60;;
11123;SDS011;5616;42.692;23.312;2023-06-14T14:03:54;7.57;;;6.77;;
11123;SDS011;5616;42.692;23.312;2023-06-14T14:06:22;7.53;;;6.67;;
11123;SDS011;5616;42.692;23.312;2023-06-14T14:08:49;7.57;;;5.97;;
11123;SDS011;5616;42.692;23.312;2023-06-14T14:11:16;6.77;;;6.03;;
11123;SDS011;5616;42.692;23.312;2023-06-14T14:13:43;8.10;;;6.80;;
11123;SDS011;5616;42.692;23.312;2023-06-14T14:16:10;8.60;;;7.70;;
11123;SDS011;5616;42.692;23.312;2023-06-14T14:18:37;8.00;;;7.20;;
11123;SDS011;5616;42.692;23.312;2023-06-14T14:21:04;11.00;;;9.83;;
11123;SDS011;5616;42.692;23.312;2023-06-14T14:23:32;7.23;;;6.53;;
11123;SDS011;5616;42.692;23.312;2023-06-14T14:25:59;6.37;;;5.73;;
11123;SDS011;5616;42.692;23.312;2023-06-14T14:28:29;7.53;;;5.60;;
11123;SDS011;5616;42.692;23.312;2023-06-14T14:30:56;5.70;;;5.13;;
11123;SDS011;5616;42.692;23.312;2023-06-14T14:33:23;5.90;;;5.30;;
11123;SDS011;5616;42.692;23.312;2023-06-14T14:35:50;6.60;;;5.90;;
11123;SDS011;5616;42.692;23.312;2023-06-14T14:38:16;6.67;;;5.40;;
11123;SDS011;5616;42.692;23.312;2023-06-14T14:40:45;6.40;;;5.77;;
11123;SDS011;5616;42.692;23.312;2023-06-14T14:43:11;8.63;;;7.00;;
11123;SDS011;5616;42.692;23.312;2023-06-14T14:45:38;7.37;;;6.67;;
11123;SDS011;5616;42.692;23.312;2023-06-14T14:48:05;8.33;;;7.53;;
11123;SDS011;5616;42.692;23.312;2023-06-14T14:50:32;6.70;;;6.10;;